Time;durP1;ratioP1;P1;durP2;ratioP2;P2;SDS_P1;SDS_P2;PMS_P1;PMS_P2;Temp;Humidity;BMP_temperature;BMP_pressure;BME280_temperature;BME280_humidity;BME280_pressure;Samples;Min_cycle;Max_cycle;Signal;HPM_P1;HPM_P2
2022/03/09 00:00:40;;;;;;;;;;;9.00;99.90;;;;;;6128242;23;19929;-91
2022/03/09 00:03:07;;;;;;;;;;;9.00;99.90;;;;;;6127951;23;19967;-89
2022/03/09 00:05:33;;;;;;;;;;;9.10;99.90;;;;;;6128227;23;19927;-91
2022/03/09 00:08:00;;;;;;;;;;;10.00;99.90;;;;;;6128245;23;19920;-90
2022/03/09 00:10:28;;;;;;;;;;;9.20;99.90;;;;;;6127743;23;19925;-91
2022/03/09 00:12:55;;;;;;;;;;;8.90;99.90;;;;;;6128487;23;20299;-91
2022/03/09 00:15:22;;;;;;;;;;;9.00;99.90;;;;;;6128386;23;19929;-90
2022/03/09 00:17:49;;;;;;;;;;;8.90;99.90;;;;;;6127806;23;20396;-91
2022/03/09 00:20:18;;;;;;;;;;;9.00;99.90;;;;;;6116310;23;19976;-90
2022/03/09 00:22:45;;;;;;;;;;;9.60;99.90;;;;;;6128283;23;19932;-90
2022/03/09 00:25:12;;;;;;;;;;;9.00;99.90;;;;;;6129151;23;19948;-90
2022/03/09 00:27:40;;;;;;;;;;;8.90;99.90;;;;;;6128295;23;19921;-90
2022/03/09 00:30:08;;;;;;;;;;;8.70;99.90;;;;;;6128205;23;20328;-89
2022/03/09 00:32:38;;;;;;;;;;;9.10;99.90;;;;;;6128159;23;19976;-91
2022/03/09 00:35:06;;;;;;;;;;;9.00;99.90;;;;;;6128290;23;19925;-89
2022/03/09 00:37:32;;;;;;;;;;;8.90;99.90;;;;;;6126879;23;19929;-90
2022/03/09 00:39:59;;;;;;;;;;;8.10;99.90;;;;;;6128183;23;19928;-91
2022/03/09 00:42:26;;;;;;;;;;;8.80;99.90;;;;;;6128024;23;19921;-90
2022/03/09 00:44:54;;;;;;;;;;;8.70;99.90;;;;;;6130006;23;20244;-89
2022/03/09 00:47:21;;;;;;;;;;;8.70;99.90;;;;;;6133473;23;19928;-90
2022/03/09 00:49:48;;;;;;;;;;;8.60;99.90;;;;;;6132738;23;19920;-89
2022/03/09 00:52:15;;;;;;;;;;;8.60;99.90;;;;;;6136725;23;19921;-89
2022/03/09 00:54:41;;;;;;;;;;;8.60;99.90;;;;;;6137778;23;19921;-87
2022/03/09 00:57:11;;;;;;;;;;;8.50;99.90;;;;;;6136073;23;19921;-90
2022/03/09 00:59:37;;;;;;;;;;;8.70;99.90;;;;;;6133323;23;20399;-89
2022/03/09 01:02:06;;;;;;;;;;;7.80;99.90;;;;;;6135829;23;19925;-88
2022/03/09 01:04:34;;;;;;;;;;;8.50;99.90;;;;;;6135315;23;19921;-89
2022/03/09 01:07:00;;;;;;;;;;;8.50;99.90;;;;;;6137198;23;19921;-88
2022/03/09 01:09:27;;;;;;;;;;;8.50;99.90;;;;;;6136663;23;19925;-87
2022/03/09 01:11:54;;;;;;;;;;;8.60;99.90;;;;;;6139010;23;20332;-88
2022/03/09 01:14:21;;;;;;;;;;;8.50;99.90;;;;;;6139763;23;20356;-88
2022/03/09 01:16:48;;;;;;;;;;;8.20;99.90;;;;;;6139499;23;19921;-89
2022/03/09 01:19:16;;;;;;;;;;;8.60;99.90;;;;;;6139771;23;19921;-90
2022/03/09 01:21:43;;;;;;;;;;;8.10;99.90;;;;;;6140057;23;19925;-88
2022/03/09 01:24:10;;;;;;;;;;;8.00;99.90;;;;;;6135851;23;19928;-89
2022/03/09 01:26:37;;;;;;;;;;;7.90;99.90;;;;;;6130929;23;20362;-90
2022/03/09 01:29:04;;;;;;;;;;;8.00;99.90;;;;;;6131180;23;19940;-89
2022/03/09 01:31:31;;;;;;;;;;;8.00;99.90;;;;;;6130508;23;19949;-89
2022/03/09 01:33:57;;;;;;;;;;;8.00;99.90;;;;;;6130936;23;19921;-89
2022/03/09 01:36:26;;;;;;;;;;;8.50;99.90;;;;;;6131240;23;19984;-87
2022/03/09 01:38:53;;;;;;;;;;;7.80;99.90;;;;;;6130316;23;20000;-89
2022/03/09 01:41:20;;;;;;;;;;;8.20;99.90;;;;;;6130865;23;19921;-89
2022/03/09 01:44:04;;;;;;;;;;;8.10;99.90;;;;;;6130836;23;19976;-90
2022/03/09 01:46:31;;;;;;;;;;;8.00;99.90;;;;;;6131370;23;20325;-89
2022/03/09 01:48:58;;;;;;;;;;;8.20;99.90;;;;;;6131351;23;20339;-89
2022/03/09 01:51:26;;;;;;;;;;;8.00;99.90;;;;;;6130971;23;19921;-90
2022/03/09 01:53:53;;;;;;;;;;;8.20;99.90;;;;;;6132851;23;19929;-90
2022/03/09 01:56:20;;;;;;;;;;;8.10;99.90;;;;;;6131199;23;19984;-90
2022/03/09 01:58:47;;;;;;;;;;;8.20;99.90;;;;;;6130355;23;19932;-91
2022/03/09 02:01:14;;;;;;;;;;;8.50;99.90;;;;;;6130618;23;19924;-91
2022/03/09 02:03:40;;;;;;;;;;;8.10;99.90;;;;;;6131284;23;19921;-90
2022/03/09 02:06:07;;;;;;;;;;;8.00;99.90;;;;;;6130540;23;19928;-90
2022/03/09 02:11:20;;;;;;;;;;;8.10;99.90;;;;;;6130204;23;19927;-91
2022/03/09 02:13:49;;;;;;;;;;;7.90;99.90;;;;;;6130502;23;19932;-89
2022/03/09 02:16:16;;;;;;;;;;;8.40;99.90;;;;;;6118579;23;19921;-90
2022/03/09 02:18:43;;;;;;;;;;;8.10;99.90;;;;;;6130283;23;19925;-89
2022/03/09 02:21:11;;;;;;;;;;;8.30;99.90;;;;;;6129612;23;20000;-91
2022/03/09 02:23:39;;;;;;;;;;;8.50;99.90;;;;;;6129736;23;19921;-90
2022/03/09 02:26:06;;;;;;;;;;;8.50;99.90;;;;;;6129742;23;20336;-89
2022/03/09 02:28:37;;;;;;;;;;;8.00;99.90;;;;;;6129683;23;20348;-89
2022/03/09 02:31:06;;;;;;;;;;;8.60;99.90;;;;;;6137099;23;19921;-86
2022/03/09 02:33:33;;;;;;;;;;;8.60;99.90;;;;;;6141196;23;19925;-86
2022/03/09 02:36:00;;;;;;;;;;;8.10;99.90;;;;;;6137403;23;19921;-89
2022/03/09 02:38:27;;;;;;;;;;;8.60;99.90;;;;;;6132831;23;19921;-90
2022/03/09 02:40:55;;;;;;;;;;;8.60;99.90;;;;;;6131996;23;20260;-90
2022/03/09 02:43:23;;;;;;;;;;;8.60;99.90;;;;;;6129766;23;19928;-91
2022/03/09 02:45:50;;;;;;;;;;;8.70;99.90;;;;;;6129677;23;19947;-90
2022/03/09 02:48:20;;;;;;;;;;;8.60;99.90;;;;;;6129459;23;19925;-89
2022/03/09 02:50:47;;;;;;;;;;;8.40;99.90;;;;;;6129593;23;19927;-90
2022/03/09 02:53:14;;;;;;;;;;;8.70;99.90;;;;;;6129180;23;19988;-91
2022/03/09 02:55:41;;;;;;;;;;;8.60;99.90;;;;;;6133542;23;20226;-88
2022/03/09 02:58:09;;;;;;;;;;;8.60;99.90;;;;;;6134606;23;19975;-89
2022/03/09 03:00:36;;;;;;;;;;;8.70;99.90;;;;;;6132002;23;19945;-91
2022/03/09 03:03:03;;;;;;;;;;;8.70;99.90;;;;;;6129902;23;19921;-90
2022/03/09 03:05:29;;;;;;;;;;;8.50;99.90;;;;;;6129688;23;19921;-91
2022/03/09 03:07:56;;;;;;;;;;;8.60;99.90;;;;;;6128989;23;20388;-90
2022/03/09 03:10:23;;;;;;;;;;;8.80;99.90;;;;;;6129001;23;19925;-89
2022/03/09 03:12:50;;;;;;;;;;;8.80;99.90;;;;;;6129006;23;19921;-91
2022/03/09 03:15:21;;;;;;;;;;;8.70;99.90;;;;;;6128661;23;19947;-90
2022/03/09 03:17:47;;;;;;;;;;;8.70;99.90;;;;;;6129730;23;19921;-91
2022/03/09 03:20:14;;;;;;;;;;;8.70;99.90;;;;;;6128965;23;19925;-91
2022/03/09 03:22:41;;;;;;;;;;;8.70;99.90;;;;;;6129364;23;19920;-90
2022/03/09 03:25:08;;;;;;;;;;;9.20;99.90;;;;;;6128721;23;19928;-91
2022/03/09 03:27:35;;;;;;;;;;;8.90;99.90;;;;;;6128797;23;19967;-90
2022/03/09 03:30:02;;;;;;;;;;;9.10;99.90;;;;;;6129221;23;19921;-91
2022/03/09 03:32:30;;;;;;;;;;;9.00;99.90;;;;;;6112117;23;19978;-91
2022/03/09 03:34:57;;;;;;;;;;;9.30;99.90;;;;;;6100212;23;19929;-90
2022/03/09 03:37:24;;;;;;;;;;;9.10;99.90;;;;;;6099790;23;20265;-91
2022/03/09 03:39:50;;;;;;;;;;;9.40;99.90;;;;;;6099302;23;19921;-92
2022/03/09 03:42:17;;;;;;;;;;;9.30;99.90;;;;;;6100087;23;19970;-91
2022/03/09 03:44:44;;;;;;;;;;;9.20;99.90;;;;;;6099230;23;19925;-90
2022/03/09 03:47:11;;;;;;;;;;;9.20;99.90;;;;;;6099319;23;19921;-88
2022/03/09 03:49:39;;;;;;;;;;;9.20;99.90;;;;;;6099514;23;19921;-92
2022/03/09 03:52:06;;;;;;;;;;;9.10;99.90;;;;;;6099035;23;19929;-91
2022/03/09 03:54:33;;;;;;;;;;;9.10;99.90;;;;;;6099130;23;19928;-90
2022/03/09 03:57:00;;;;;;;;;;;9.10;99.90;;;;;;6099915;23;19921;-91
2022/03/09 03:59:26;;;;;;;;;;;9.50;99.90;;;;;;6099080;23;19925;-91
2022/03/09 04:01:53;;;;;;;;;;;9.00;99.90;;;;;;6099223;23;19933;-91
2022/03/09 04:04:20;;;;;;;;;;;9.00;99.90;;;;;;6100343;23;19921;-91
2022/03/09 04:07:05;;;;;;;;;;;9.00;99.90;;;;;;6099720;23;19989;-91
2022/03/09 04:09:31;;;;;;;;;;;9.10;99.90;;;;;;6099404;23;19928;-91
2022/03/09 04:11:58;;;;;;;;;;;9.20;99.90;;;;;;6099462;23;19927;-91
2022/03/09 04:14:25;;;;;;;;;;;9.30;99.90;;;;;;6100036;23;19928;-91
2022/03/09 04:16:52;;;;;;;;;;;9.30;99.90;;;;;;6099804;23;19949;-90
2022/03/09 04:19:19;;;;;;;;;;;9.20;99.90;;;;;;6099829;23;20396;-91
2022/03/09 04:21:46;;;;;;;;;;;9.20;99.90;;;;;;6099924;23;19977;-91
2022/03/09 04:24:14;;;;;;;;;;;9.20;99.90;;;;;;6099335;23;20356;-90
2022/03/09 04:26:41;;;;;;;;;;;9.10;99.90;;;;;;6099019;23;19978;-91
2022/03/09 04:29:07;;;;;;;;;;;9.10;99.90;;;;;;6099771;23;20005;-88
2022/03/09 04:31:34;;;;;;;;;;;9.10;99.90;;;;;;6098728;23;20001;-90
2022/03/09 04:34:02;;;;;;;;;;;9.40;99.90;;;;;;6098997;23;19929;-91
2022/03/09 04:36:29;;;;;;;;;;;9.00;99.90;;;;;;6099921;23;19944;-88
2022/03/09 04:38:56;;;;;;;;;;;9.30;99.90;;;;;;6099579;23;19925;-91
2022/03/09 04:41:24;;;;;;;;;;;9.20;99.90;;;;;;6099229;23;19929;-92
2022/03/09 04:43:53;;;;;;;;;;;8.90;99.90;;;;;;6098332;23;19921;-91
2022/03/09 04:46:20;;;;;;;;;;;8.90;99.90;;;;;;6116998;23;19925;-88
2022/03/09 04:48:49;;;;;;;;;;;8.80;99.90;;;;;;6128048;23;19921;-90
2022/03/09 04:51:15;;;;;;;;;;;8.90;99.90;;;;;;6128555;23;19928;-90
2022/03/09 04:53:42;;;;;;;;;;;8.90;99.90;;;;;;6128365;23;19920;-89
2022/03/09 04:56:09;;;;;;;;;;;8.90;99.90;;;;;;6129029;23;19925;-91
2022/03/09 04:58:38;;;;;;;;;;;8.80;99.90;;;;;;6130301;23;20300;-88
2022/03/09 05:01:04;;;;;;;;;;;9.00;99.90;;;;;;6135762;23;19931;-88
2022/03/09 05:03:33;;;;;;;;;;;8.60;99.90;;;;;;6135331;23;20287;-90
2022/03/09 05:06:00;;;;;;;;;;;8.80;99.90;;;;;;6129327;23;19944;-90
2022/03/09 05:08:26;;;;;;;;;;;8.80;99.90;;;;;;6128924;23;19921;-91
2022/03/09 05:10:53;;;;;;;;;;;8.30;99.90;;;;;;6128976;23;19927;-89
2022/03/09 05:13:20;;;;;;;;;;;8.70;99.90;;;;;;6128646;23;19920;-91
2022/03/09 05:15:48;;;;;;;;;;;8.70;99.90;;;;;;6128680;23;19928;-91
2022/03/09 05:18:15;;;;;;;;;;;8.20;99.90;;;;;;6128399;23;19921;-90
2022/03/09 05:20:42;;;;;;;;;;;8.50;99.90;;;;;;6128434;23;20000;-89
2022/03/09 05:23:09;;;;;;;;;;;8.30;99.90;;;;;;6128304;23;19932;-90
2022/03/09 05:25:36;;;;;;;;;;;8.90;99.90;;;;;;6127896;23;19928;-90
2022/03/09 05:28:03;;;;;;;;;;;8.90;99.90;;;;;;6128473;23;19928;-89
2022/03/09 05:30:30;;;;;;;;;;;8.60;99.90;;;;;;6128573;23;20233;-90
2022/03/09 05:32:58;;;;;;;;;;;8.50;99.90;;;;;;6128158;23;19921;-89
2022/03/09 05:35:25;;;;;;;;;;;9.00;99.90;;;;;;6128305;23;19936;-91
2022/03/09 05:37:52;;;;;;;;;;;8.50;99.90;;;;;;6128366;23;19924;-91
2022/03/09 05:40:18;;;;;;;;;;;8.50;99.90;;;;;;6102943;23;19952;-90
2022/03/09 05:42:45;;;;;;;;;;;8.40;99.90;;;;;;6128288;23;19921;-91
2022/03/09 05:45:12;;;;;;;;;;;8.30;99.90;;;;;;6127705;23;19921;-89
2022/03/09 05:47:39;;;;;;;;;;;8.10;99.90;;;;;;6128633;23;19920;-87
2022/03/09 05:50:08;;;;;;;;;;;8.20;99.90;;;;;;6128475;23;19921;-89
2022/03/09 05:52:35;;;;;;;;;;;8.20;99.90;;;;;;6127828;23;19941;-90
2022/03/09 05:55:01;;;;;;;;;;;8.30;99.90;;;;;;6128612;23;19921;-90
2022/03/09 05:57:28;;;;;;;;;;;8.00;99.90;;;;;;6130398;23;19928;-91
2022/03/09 05:59:56;;;;;;;;;;;8.10;99.90;;;;;;6130277;23;20304;-89
2022/03/09 06:02:24;;;;;;;;;;;8.20;99.90;;;;;;6130207;23;19920;-88
2022/03/09 06:04:51;;;;;;;;;;;8.20;99.90;;;;;;6130220;23;20333;-91
2022/03/09 06:07:20;;;;;;;;;;;8.70;99.90;;;;;;6131233;23;19921;-86
2022/03/09 06:09:46;;;;;;;;;;;8.40;99.90;;;;;;6141307;23;19921;-86
2022/03/09 06:12:15;;;;;;;;;;;8.20;99.90;;;;;;6141313;23;19924;-86
2022/03/09 06:14:41;;;;;;;;;;;8.10;99.90;;;;;;6134883;23;19921;-89
2022/03/09 06:17:08;;;;;;;;;;;6.60;99.90;;;;;;6135023;23;19995;-90
2022/03/09 06:19:35;;;;;;;;;;;8.10;99.90;;;;;;6132482;23;19931;-91
2022/03/09 06:22:02;;;;;;;;;;;8.10;99.90;;;;;;6131013;23;19984;-92
2022/03/09 06:24:30;;;;;;;;;;;8.10;99.90;;;;;;6105087;23;19920;-91
2022/03/09 06:26:57;;;;;;;;;;;8.10;99.90;;;;;;6130151;23;20333;-91
2022/03/09 06:29:24;;;;;;;;;;;8.00;99.90;;;;;;6130160;23;19928;-90
2022/03/09 06:31:50;;;;;;;;;;;8.70;99.90;;;;;;6129327;23;20240;-90
2022/03/09 06:34:17;;;;;;;;;;;6.00;99.90;;;;;;6130426;23;20004;-91
2022/03/09 06:36:45;;;;;;;;;;;8.10;99.90;;;;;;6129590;23;19961;-91
2022/03/09 06:39:12;;;;;;;;;;;8.00;99.90;;;;;;6130410;23;19987;-91
2022/03/09 06:41:41;;;;;;;;;;;8.00;99.90;;;;;;6129363;23;20015;-90
2022/03/09 06:44:08;;;;;;;;;;;8.00;99.90;;;;;;6129062;23;20706;-92
2022/03/09 06:46:35;;;;;;;;;;;8.00;99.90;;;;;;6129699;23;19921;-90
2022/03/09 06:49:02;;;;;;;;;;;7.90;99.90;;;;;;6130104;23;19921;-88
2022/03/09 06:51:29;;;;;;;;;;;7.90;99.90;;;;;;6130016;23;19925;-90
2022/03/09 06:53:56;;;;;;;;;;;7.90;99.90;;;;;;6130392;23;20336;-89
2022/03/09 06:56:22;;;;;;;;;;;8.00;99.90;;;;;;6130371;23;19967;-90
2022/03/09 06:58:51;;;;;;;;;;;8.00;99.90;;;;;;6131203;23;19935;-91
2022/03/09 07:01:17;;;;;;;;;;;8.00;99.90;;;;;;6132294;23;19921;-88
2022/03/09 07:03:44;;;;;;;;;;;8.00;99.90;;;;;;6136447;23;19921;-88
2022/03/09 07:06:11;;;;;;;;;;;8.00;99.90;;;;;;6134999;23;19927;-89
2022/03/09 07:08:38;;;;;;;;;;;8.00;99.90;;;;;;6132657;23;19929;-87
2022/03/09 07:11:05;;;;;;;;;;;8.20;99.90;;;;;;6129960;23;19925;-91
2022/03/09 07:13:32;;;;;;;;;;;8.10;99.90;;;;;;6129275;23;19920;-91
2022/03/09 07:16:00;;;;;;;;;;;7.80;99.90;;;;;;6130336;23;19925;-89
2022/03/09 07:18:27;;;;;;;;;;;8.20;99.90;;;;;;6130009;23;19931;-90
2022/03/09 07:20:53;;;;;;;;;;;8.20;99.90;;;;;;6129994;23;19921;-90
2022/03/09 07:23:20;;;;;;;;;;;8.50;99.90;;;;;;6130002;23;19925;-89
2022/03/09 07:25:47;;;;;;;;;;;8.60;99.90;;;;;;6129868;23;19929;-90
2022/03/09 07:28:14;;;;;;;;;;;8.30;99.90;;;;;;6128849;23;19925;-91
2022/03/09 07:30:41;;;;;;;;;;;8.30;99.90;;;;;;6128831;23;19927;-89
2022/03/09 07:33:09;;;;;;;;;;;8.50;99.90;;;;;;6131552;23;19921;-89
2022/03/09 07:35:36;;;;;;;;;;;8.50;99.90;;;;;;6130696;23;19944;-90
2022/03/09 07:38:03;;;;;;;;;;;8.60;99.90;;;;;;6128656;23;19976;-92
2022/03/09 07:40:30;;;;;;;;;;;8.60;99.90;;;;;;6130460;23;19932;-90
2022/03/09 07:42:58;;;;;;;;;;;8.60;99.90;;;;;;6129727;23;19948;-91
2022/03/09 07:45:25;;;;;;;;;;;8.20;99.90;;;;;;6132904;23;19927;-89
2022/03/09 07:47:54;;;;;;;;;;;9.10;99.90;;;;;;6130529;23;19949;-88
2022/03/09 07:50:22;;;;;;;;;;;8.90;99.90;;;;;;6131628;23;19921;-90
2022/03/09 07:52:49;;;;;;;;;;;10.70;99.90;;;;;;6129795;23;19920;-88
2022/03/09 07:55:16;;;;;;;;;;;9.20;99.90;;;;;;6130051;23;19993;-90
2022/03/09 07:57:42;;;;;;;;;;;9.00;99.90;;;;;;6115894;23;20016;-91
2022/03/09 08:00:10;;;;;;;;;;;9.10;99.90;;;;;;6118423;23;20004;-89
2022/03/09 08:02:37;;;;;;;;;;;9.70;99.90;;;;;;6129251;23;19924;-89
2022/03/09 08:05:05;;;;;;;;;;;9.30;99.90;;;;;;6130496;23;19928;-90
2022/03/09 08:10:23;;;;;;;;;;;9.30;99.90;;;;;;6136171;23;19932;-91
2022/03/09 08:12:50;;;;;;;;;;;11.00;99.90;;;;;;6131164;23;19929;-86
2022/03/09 08:15:17;;;;;;;;;;;9.80;99.90;;;;;;6136344;23;19920;-91
2022/03/09 08:17:46;;;;;;;;;;;9.50;99.90;;;;;;6134184;23;22013;-87
2022/03/09 08:20:14;;;;;;;;;;;9.40;99.90;;;;;;6131519;23;19925;-91
2022/03/09 08:22:47;;;;;;;;;;;8.50;99.90;;;;;;6137494;23;19980;-89
2022/03/09 08:25:14;;;;;;;;;;;8.30;99.90;;;;;;6131188;23;19925;-86
2022/03/09 08:27:45;;;;;;;;;;;12.20;99.90;;;;;;6132052;23;19932;-88
2022/03/09 08:30:12;;;;;;;;;;;10.10;99.90;;;;;;6128504;23;20329;-88
2022/03/09 08:32:45;;;;;;;;;;;10.00;99.90;;;;;;6131978;23;19921;-89
2022/03/09 08:35:12;;;;;;;;;;;9.90;99.90;;;;;;6131597;23;19925;-89
2022/03/09 08:37:38;;;;;;;;;;;9.90;99.90;;;;;;6133684;23;20270;-89
2022/03/09 08:40:08;;;;;;;;;;;10.60;99.90;;;;;;6130552;23;19921;-90
2022/03/09 08:42:35;;;;;;;;;;;10.20;99.90;;;;;;6129671;23;19940;-90
2022/03/09 08:45:06;;;;;;;;;;;10.00;99.90;;;;;;6129667;23;20276;-89
2022/03/09 08:47:34;;;;;;;;;;;10.30;99.90;;;;;;6129394;23;20263;-88
2022/03/09 08:50:01;;;;;;;;;;;9.80;99.90;;;;;;6135694;23;19952;-91
2022/03/09 08:55:20;;;;;;;;;;;10.50;99.90;;;;;;6103582;23;19921;-89
2022/03/09 08:57:52;;;;;;;;;;;10.20;99.90;;;;;;6123614;23;19996;-88
2022/03/09 09:00:24;;;;;;;;;;;10.50;99.90;;;;;;6128081;23;19925;-89
2022/03/09 09:02:52;;;;;;;;;;;10.60;99.90;;;;;;6118691;23;20033;-86
2022/03/09 09:05:20;;;;;;;;;;;10.30;99.90;;;;;;6124320;23;19952;-86
2022/03/09 09:10:36;;;;;;;;;;;10.50;99.90;;;;;;6127343;23;20344;-87
2022/03/09 09:13:15;;;;;;;;;;;10.60;99.90;;;;;;6116694;23;19936;-89
2022/03/09 09:15:42;;;;;;;;;;;10.40;99.90;;;;;;6120024;23;19921;-91
2022/03/09 09:18:11;;;;;;;;;;;10.80;99.90;;;;;;6118635;23;19932;-90
2022/03/09 09:20:38;;;;;;;;;;;10.40;99.90;;;;;;6126827;23;19973;-90
2022/03/09 09:23:06;;;;;;;;;;;10.50;99.90;;;;;;6126369;23;19927;-89
2022/03/09 09:25:37;;;;;;;;;;;10.90;99.90;;;;;;6126974;23;19928;-89
2022/03/09 09:28:08;;;;;;;;;;;11.60;99.90;;;;;;6124211;23;19925;-92
2022/03/09 09:33:17;;;;;;;;;;;11.20;99.90;;;;;;6125079;23;20054;-89
2022/03/09 09:35:51;;;;;;;;;;;11.30;99.90;;;;;;6130657;23;19937;-88
2022/03/09 09:38:20;;;;;;;;;;;11.20;99.90;;;;;;6130517;23;20275;-84
2022/03/09 09:40:47;;;;;;;;;;;11.00;99.90;;;;;;6127137;23;19921;-85
2022/03/09 09:43:18;;;;;;;;;;;10.80;99.90;;;;;;6126888;23;20244;-84
2022/03/09 09:45:45;;;;;;;;;;;10.90;99.90;;;;;;6127371;23;20028;-88
2022/03/09 09:48:12;;;;;;;;;;;11.00;99.90;;;;;;6127233;23;20003;-88
2022/03/09 09:50:54;;;;;;;;;;;11.00;99.90;;;;;;6128414;23;20332;-89
2022/03/09 09:53:23;;;;;;;;;;;11.60;99.90;;;;;;6128890;23;19921;-89
2022/03/09 09:55:50;;;;;;;;;;;11.30;99.90;;;;;;6129883;23;19924;-89
2022/03/09 09:58:25;;;;;;;;;;;11.60;99.90;;;;;;6127824;23;19921;-89
2022/03/09 10:00:52;;;;;;;;;;;13.00;99.90;;;;;;6128371;23;19952;-90
2022/03/09 10:03:21;;;;;;;;;;;11.40;99.90;;;;;;6130376;23;19964;-91
2022/03/09 10:05:50;;;;;;;;;;;12.00;99.90;;;;;;6130003;23;20060;-92
2022/03/09 10:08:18;;;;;;;;;;;11.50;99.90;;;;;;6130170;23;19921;-88
2022/03/09 10:10:59;;;;;;;;;;;12.30;99.90;;;;;;6129165;23;19956;-90
2022/03/09 10:13:29;;;;;;;;;;;11.90;99.90;;;;;;6127850;23;20001;-90
2022/03/09 10:16:26;;;;;;;;;;;12.00;99.90;;;;;;6126659;23;20310;-92
2022/03/09 10:18:57;;;;;;;;;;;12.40;99.90;;;;;;6128403;23;19925;-91
2022/03/09 10:21:25;;;;;;;;;;;11.60;99.90;;;;;;6127256;23;19921;-88
2022/03/09 10:23:53;;;;;;;;;;;11.90;99.90;;;;;;6127637;23;19992;-89
2022/03/09 10:26:20;;;;;;;;;;;11.90;99.90;;;;;;6129257;23;19928;-88
2022/03/09 10:28:58;;;;;;;;;;;13.40;99.90;;;;;;6128355;23;20260;-88
2022/03/09 10:31:35;;;;;;;;;;;12.10;99.90;;;;;;6130206;23;19976;-89
2022/03/09 10:34:09;;;;;;;;;;;12.10;99.90;;;;;;6127757;23;19955;-86
2022/03/09 10:36:36;;;;;;;;;;;11.90;99.90;;;;;;6116070;23;19965;-88
2022/03/09 10:39:14;;;;;;;;;;;14.90;99.90;;;;;;6126212;23;19921;-90
2022/03/09 10:41:48;;;;;;;;;;;12.10;99.90;;;;;;6127579;23;19997;-89
2022/03/09 10:44:20;;;;;;;;;;;12.60;99.90;;;;;;6128412;23;19925;-90
2022/03/09 10:46:47;;;;;;;;;;;11.90;99.90;;;;;;6126277;23;19952;-90
2022/03/09 10:49:20;;;;;;;;;;;11.50;99.90;;;;;;6092542;23;19953;-90
2022/03/09 10:51:53;;;;;;;;;;;11.70;99.90;;;;;;6088608;23;19932;-90
2022/03/09 10:54:26;;;;;;;;;;;11.40;99.90;;;;;;6126632;23;19928;-89
2022/03/09 10:57:09;;;;;;;;;;;11.80;99.90;;;;;;6126485;23;19928;-90
2022/03/09 10:59:56;;;;;;;;;;;11.20;99.90;;;;;;6127670;23;19931;-89
2022/03/09 11:02:23;;;;;;;;;;;12.00;99.90;;;;;;6130009;23;19921;-90
2022/03/09 11:05:08;;;;;;;;;;;12.10;99.90;;;;;;6131374;23;19952;-89
2022/03/09 11:07:36;;;;;;;;;;;11.80;99.90;;;;;;6130764;23;19944;-89
2022/03/09 11:10:03;;;;;;;;;;;12.10;99.90;;;;;;6114080;23;19960;-88
2022/03/09 11:12:30;;;;;;;;;;;11.90;99.90;;;;;;6119420;23;19988;-89
2022/03/09 11:15:05;;;;;;;;;;;12.10;99.90;;;;;;6127565;23;19924;-89
2022/03/09 11:17:35;;;;;;;;;;;12.20;99.90;;;;;;6126615;23;19983;-90
2022/03/09 11:20:05;;;;;;;;;;;12.70;99.90;;;;;;6127793;23;20251;-90
2022/03/09 11:22:45;;;;;;;;;;;;;;;;;;;;;
2022/03/09 11:25:43;;;;;;;;;;;12.70;99.90;;;;;;6040427;23;20302;-90
2022/03/09 11:28:27;;;;;;;;;;;11.50;99.90;;;;;;6127627;23;19931;-90
2022/03/09 11:31:28;;;;;;;;;;;;;;;;;;;;;
2022/03/09 11:34:08;;;;;;;;;;;11.70;99.90;;;;;;6135055;23;19949;-88
2022/03/09 11:36:37;;;;;;;;;;;12.80;99.90;;;;;;6126299;23;19921;-89
2022/03/09 11:39:29;;;;;;;;;;;12.60;99.90;;;;;;6132164;23;20003;-92
2022/03/09 11:42:15;;;;;;;;;;;13.30;99.90;;;;;;6131098;23;19929;-91
2022/03/09 11:44:43;;;;;;;;;;;13.20;99.90;;;;;;6128072;23;20003;-89
2022/03/09 11:47:14;;;;;;;;;;;13.10;99.90;;;;;;6133033;23;19944;-92
2022/03/09 11:50:13;;;;;;;;;;;13.60;99.90;;;;;;6126087;23;19952;-90
2022/03/09 11:53:07;;;;;;;;;;;13.20;99.90;;;;;;6129693;23;20312;-89
2022/03/09 11:55:46;;;;;;;;;;;12.60;99.90;;;;;;6118369;23;19921;-90
2022/03/09 11:58:14;;;;;;;;;;;10.90;99.90;;;;;;6128186;23;19921;-90
2022/03/09 12:01:00;;;;;;;;;;;15.00;99.90;;;;;;6122097;23;20332;-91
2022/03/09 12:03:55;;;;;;;;;;;13.40;99.90;;;;;;6122397;23;19925;-90
2022/03/09 12:06:37;;;;;;;;;;;13.60;99.90;;;;;;6113316;23;19925;-89
2022/03/09 12:09:09;;;;;;;;;;;13.60;99.90;;;;;;6124620;23;20264;-92
2022/03/09 12:15:02;;;;;;;;;;;13.20;99.90;;;;;;6113614;23;20868;-91
2022/03/09 12:17:31;;;;;;;;;;;13.30;99.90;;;;;;6110144;23;20348;-89
2022/03/09 12:20:28;;;;;;;;;;;13.50;99.90;;;;;;6127406;23;19925;-90
2022/03/09 12:23:16;;;;;;;;;;;;;;;;;;;;;
2022/03/09 12:26:05;;;;;;;;;;;13.30;99.90;;;;;;6119424;23;20015;-89
2022/03/09 12:28:47;;;;;;;;;;;13.40;99.90;;;;;;6030547;23;19929;-90
2022/03/09 12:31:23;;;;;;;;;;;13.70;99.90;;;;;;6040575;23;19948;-91
2022/03/09 12:34:27;;;;;;;;;;;;;;;;;;;;;
2022/03/09 12:37:08;;;;;;;;;;;;;;;;;;;;;
2022/03/09 12:39:39;;;;;;;;;;;13.80;99.90;;;;;;6096954;23;19929;-90
2022/03/09 12:42:07;;;;;;;;;;;13.20;99.90;;;;;;6099125;23;19940;-90
2022/03/09 12:44:36;;;;;;;;;;;15.20;99.90;;;;;;6088399;23;19928;-91
2022/03/09 12:47:06;;;;;;;;;;;14.30;99.90;;;;;;6086221;23;19921;-90
2022/03/09 12:49:41;;;;;;;;;;;14.10;99.90;;;;;;6096660;23;19921;-90
2022/03/09 12:52:09;;;;;;;;;;;14.30;99.90;;;;;;6097226;23;19921;-90
2022/03/09 12:54:37;;;;;;;;;;;14.60;99.90;;;;;;6096455;23;19999;-91
2022/03/09 12:57:11;;;;;;;;;;;13.80;99.90;;;;;;6099771;23;19925;-90
2022/03/09 12:59:39;;;;;;;;;;;13.70;99.90;;;;;;6097318;23;19929;-91
2022/03/09 13:02:06;;;;;;;;;;;14.10;99.90;;;;;;6098179;23;20509;-89
2022/03/09 13:04:36;;;;;;;;;;;13.70;99.90;;;;;;6097771;23;19960;-92
2022/03/09 13:07:13;;;;;;;;;;;14.10;99.90;;;;;;6081347;23;20433;-92
2022/03/09 13:09:44;;;;;;;;;;;14.10;99.90;;;;;;6091724;23;19926;-90
2022/03/09 13:12:11;;;;;;;;;;;13.50;99.90;;;;;;6097171;23;19922;-90
2022/03/09 13:14:43;;;;;;;;;;;13.40;99.90;;;;;;6098313;23;19932;-89
2022/03/09 13:17:12;;;;;;;;;;;13.10;99.90;;;;;;6101852;23;19930;-90
2022/03/09 13:19:46;;;;;;;;;;;13.20;99.90;;;;;;6094519;23;20048;-90
2022/03/09 13:22:20;;;;;;;;;;;13.60;99.90;;;;;;6099542;23;19929;-89
2022/03/09 13:25:08;;;;;;;;;;;13.60;99.90;;;;;;6100363;23;19945;-89
2022/03/09 13:33:38;;;;;;;;;;;13.80;99.90;;;;;;6110127;23;19925;-90
2022/03/09 13:36:06;;;;;;;;;;;14.00;99.90;;;;;;6127072;23;19925;-89
2022/03/09 13:38:32;;;;;;;;;;;13.90;99.90;;;;;;6127471;23;19925;-90
2022/03/09 13:41:07;;;;;;;;;;;13.20;99.90;;;;;;6129034;23;19925;-89
2022/03/09 13:43:48;;;;;;;;;;;13.20;99.90;;;;;;6128083;23;19968;-90
2022/03/09 13:46:28;;;;;;;;;;;13.50;99.90;;;;;;6113621;23;19931;-91
2022/03/09 13:49:11;;;;;;;;;;;13.40;99.90;;;;;;6129465;23;19921;-89
2022/03/09 13:51:38;;;;;;;;;;;13.40;99.90;;;;;;6128930;23;19929;-90
2022/03/09 13:54:06;;;;;;;;;;;13.20;99.90;;;;;;6130840;23;20376;-88
2022/03/09 13:56:36;;;;;;;;;;;13.20;99.90;;;;;;6103951;23;20391;-91
2022/03/09 13:59:07;;;;;;;;;;;13.30;99.90;;;;;;6128156;23;19920;-88
2022/03/09 14:01:38;;;;;;;;;;;13.30;99.90;;;;;;6129890;23;20039;-89
2022/03/09 14:04:06;;;;;;;;;;;14.20;99.90;;;;;;6132367;23;19921;-91
2022/03/09 14:06:38;;;;;;;;;;;14.10;99.90;;;;;;6132177;23;19921;-88
2022/03/09 14:09:11;;;;;;;;;;;13.60;99.90;;;;;;6130291;23;19984;-90
2022/03/09 14:11:39;;;;;;;;;;;14.10;99.90;;;;;;6131426;23;19952;-90
2022/03/09 14:14:06;;;;;;;;;;;13.60;99.90;;;;;;6130247;23;20210;-90
2022/03/09 14:16:36;;;;;;;;;;;14.20;99.90;;;;;;6127939;23;19927;-90
2022/03/09 14:19:14;;;;;;;;;;;13.90;99.90;;;;;;6126476;23;19921;-89
2022/03/09 14:21:42;;;;;;;;;;;13.90;99.90;;;;;;6132851;23;19933;-90
2022/03/09 14:26:56;;;;;;;;;;;13.60;99.90;;;;;;6119395;23;19921;-88
2022/03/09 14:29:27;;;;;;;;;;;11.80;99.90;;;;;;6128874;23;20254;-92
2022/03/09 14:32:11;;;;;;;;;;;;;;;;;;;;;
2022/03/09 14:34:43;;;;;;;;;;;14.10;99.90;;;;;;6129795;23;19921;-89
2022/03/09 14:37:12;;;;;;;;;;;14.10;99.90;;;;;;6129908;23;20415;-89
2022/03/09 14:39:40;;;;;;;;;;;13.70;99.90;;;;;;6131082;23;19970;-91
2022/03/09 14:42:10;;;;;;;;;;;12.90;98.90;;;;;;6128724;23;19921;-90
2022/03/09 14:44:38;;;;;;;;;;;13.70;99.60;;;;;;6126970;23;19925;-90
2022/03/09 14:47:09;;;;;;;;;;;13.60;99.90;;;;;;6128510;23;19951;-92
2022/03/09 14:52:45;;;;;;;;;;;14.00;99.90;;;;;;6102719;23;19951;-92
2022/03/09 14:55:14;;;;;;;;;;;14.10;99.70;;;;;;6130798;23;19928;-89
2022/03/09 14:57:54;;;;;;;;;;;;;;;;;;;;;
2022/03/09 15:00:24;;;;;;;;;;;13.20;99.90;;;;;;6121571;23;19955;-89
2022/03/09 15:03:01;;;;;;;;;;;13.70;99.90;;;;;;6103973;23;20410;-91
2022/03/09 15:08:28;;;;;;;;;;;13.70;99.90;;;;;;6105703;23;19962;-86
2022/03/09 15:10:57;;;;;;;;;;;14.60;99.90;;;;;;6127211;23;19925;-89
2022/03/09 15:13:33;;;;;;;;;;;14.00;99.80;;;;;;6123427;23;19943;-90
2022/03/09 15:16:01;;;;;;;;;;;14.50;99.90;;;;;;6131250;23;20007;-90
2022/03/09 15:18:36;;;;;;;;;;;13.80;99.90;;;;;;6126681;23;19925;-87